createdAt,value
2022-12-14T00:00:25.782Z,40.40
2022-12-14T00:02:56.669Z,38.00
2022-12-14T00:05:29.120Z,45.37
2022-12-14T00:07:59.709Z,43.40
2022-12-14T00:10:30.582Z,44.50
2022-12-14T00:13:01.738Z,43.27
2022-12-14T00:15:32.687Z,42.30
2022-12-14T00:18:03.354Z,43.30
2022-12-14T00:20:35.332Z,40.57
2022-12-14T00:23:06.046Z,39.90
2022-12-14T00:25:36.750Z,37.53
2022-12-14T00:28:08.129Z,41.80
2022-12-14T00:30:38.853Z,43.57
2022-12-14T00:33:09.485Z,41.73
2022-12-14T00:35:40.167Z,39.33
2022-12-14T00:38:10.786Z,40.13
2022-12-14T00:40:41.348Z,39.07
2022-12-14T00:43:11.924Z,39.07
2022-12-14T00:45:44.759Z,38.87
2022-12-14T00:48:16.159Z,39.37
2022-12-14T00:50:48.998Z,41.97
2022-12-14T00:53:20.571Z,36.53
2022-12-14T00:55:52.210Z,38.67
2022-12-14T00:58:25.257Z,36.33
2022-12-14T01:01:02.978Z,36.80
2022-12-14T01:03:34.496Z,41.57
2022-12-14T01:06:07.116Z,41.60
2022-12-14T01:08:37.756Z,36.93
2022-12-14T01:11:09.797Z,40.27
2022-12-14T01:13:41.515Z,40.47
2022-12-14T01:16:14.505Z,41.73
2022-12-14T01:18:46.264Z,42.67
2022-12-14T01:21:19.130Z,40.33
2022-12-14T01:23:51.711Z,41.97
2022-12-14T01:26:23.505Z,42.63
2022-12-14T01:28:57.453Z,38.97
2022-12-14T01:31:30.642Z,37.00
2022-12-14T01:34:01.940Z,37.80
2022-12-14T01:36:34.598Z,37.73
2022-12-14T01:39:07.540Z,39.50
2022-12-14T01:41:40.366Z,39.20
2022-12-14T01:44:46.582Z,38.33
2022-12-14T01:47:22.267Z,40.57
2022-12-14T01:49:56.101Z,40.57
2022-12-14T01:52:30.205Z,39.50
2022-12-14T01:55:03.917Z,41.20
2022-12-14T01:57:38.070Z,41.00
2022-12-14T02:00:13.936Z,40.63
2022-12-14T02:02:48.086Z,39.90
2022-12-14T02:05:21.879Z,40.10
2022-12-14T02:07:55.149Z,38.27
2022-12-14T02:10:29.161Z,42.37
2022-12-14T02:13:03.227Z,39.33
2022-12-14T02:15:35.310Z,39.93
2022-12-14T02:18:08.781Z,41.53
2022-12-14T02:20:43.449Z,40.27
2022-12-14T02:23:32.472Z,36.47
2022-12-14T02:26:39.212Z,39.57
2022-12-14T02:29:50.186Z,39.63
2022-12-14T02:32:35.786Z,39.90
2022-12-14T02:35:10.596Z,39.13
2022-12-14T02:37:45.050Z,37.73
2022-12-14T02:40:25.164Z,35.10
2022-12-14T02:43:02.092Z,38.07
2022-12-14T02:45:37.730Z,36.60
2022-12-14T02:48:11.283Z,35.73
2022-12-14T02:50:46.984Z,35.40
2022-12-14T02:53:21.829Z,36.63
2022-12-14T02:55:54.668Z,36.90
2022-12-14T02:58:28.293Z,36.13
2022-12-14T03:01:00.489Z,35.73
2022-12-14T03:03:31.380Z,36.10
2022-12-14T03:06:04.657Z,36.37
2022-12-14T03:08:37.376Z,36.40
2022-12-14T03:11:11.035Z,36.63
2022-12-14T03:13:44.811Z,37.83
2022-12-14T03:16:18.892Z,38.90
2022-12-14T03:18:52.602Z,38.30
2022-12-14T03:21:26.355Z,38.70
2022-12-14T03:23:58.815Z,35.57
2022-12-14T03:26:32.511Z,37.80
2022-12-14T03:29:06.560Z,38.60
2022-12-14T03:31:40.347Z,38.30
2022-12-14T03:34:14.542Z,36.63
2022-12-14T03:36:48.441Z,38.63
2022-12-14T03:39:22.293Z,37.23
2022-12-14T03:41:56.690Z,37.90
2022-12-14T03:44:32.484Z,38.57
2022-12-14T03:47:07.893Z,36.20
2022-12-14T03:49:46.271Z,40.90
2022-12-14T03:52:22.286Z,33.57
2022-12-14T03:54:56.596Z,35.00
2022-12-14T03:57:31.595Z,34.67
2022-12-14T04:00:05.468Z,35.47
2022-12-14T04:02:41.043Z,39.33
2022-12-14T04:05:15.045Z,36.67
2022-12-14T04:07:49.167Z,40.37
2022-12-14T04:10:40.111Z,41.60
2022-12-14T04:13:31.990Z,38.63
2022-12-14T04:16:25.052Z,36.03
2022-12-14T04:19:00.435Z,35.63
2022-12-14T04:21:36.183Z,36.80
2022-12-14T04:24:27.997Z,35.27
2022-12-14T04:27:02.478Z,35.53
2022-12-14T04:29:53.778Z,37.10
2022-12-14T04:32:28.108Z,37.03
2022-12-14T04:35:09.321Z,36.77
2022-12-14T04:37:42.574Z,36.10
2022-12-14T04:40:16.522Z,35.83
2022-12-14T04:42:50.783Z,31.60
2022-12-14T04:45:24.650Z,33.03
2022-12-14T04:47:59.961Z,38.67
2022-12-14T04:50:34.923Z,34.77
2022-12-14T04:53:09.854Z,34.93
2022-12-14T04:55:44.378Z,40.33
2022-12-14T04:58:18.313Z,36.33
2022-12-14T05:00:57.569Z,36.50
2022-12-14T05:03:32.312Z,37.53
2022-12-14T05:06:10.134Z,36.30
2022-12-14T05:08:56.387Z,33.40
2022-12-14T05:14:07.077Z,35.33
2022-12-14T05:16:39.800Z,35.00
2022-12-14T05:19:12.152Z,33.80
2022-12-14T05:21:48.578Z,34.33
2022-12-14T05:24:19.834Z,38.07
2022-12-14T05:26:50.475Z,32.30
2022-12-14T05:29:21.048Z,35.17
2022-12-14T05:31:52.973Z,32.20
2022-12-14T05:34:24.034Z,29.20
2022-12-14T05:36:56.878Z,36.57
2022-12-14T05:39:27.453Z,47.13
2022-12-14T05:41:58.197Z,37.97
2022-12-14T05:44:28.992Z,32.70
2022-12-14T05:46:59.604Z,33.60
2022-12-14T05:49:30.174Z,39.70
2022-12-14T05:52:00.788Z,46.77
2022-12-14T05:54:31.453Z,38.47
2022-12-14T05:57:02.063Z,36.30
2022-12-14T05:59:32.756Z,38.77
2022-12-14T06:02:03.440Z,34.37
2022-12-14T06:04:34.436Z,32.00
2022-12-14T06:07:05.206Z,29.93
2022-12-14T06:09:35.936Z,29.13
2022-12-14T06:12:07.163Z,30.50
2022-12-14T06:14:37.743Z,29.13
2022-12-14T06:17:08.696Z,28.97
2022-12-14T06:19:39.314Z,26.40
2022-12-14T06:22:10.030Z,27.07
2022-12-14T06:24:40.816Z,28.73
2022-12-14T06:27:11.566Z,29.77
2022-12-14T06:29:42.281Z,28.80
2022-12-14T06:32:13.026Z,27.93
2022-12-14T06:34:43.726Z,29.97
2022-12-14T06:37:14.543Z,31.47
2022-12-14T06:39:46.467Z,32.00
2022-12-14T06:42:17.754Z,30.83
2022-12-14T06:44:48.514Z,31.10
2022-12-14T06:47:19.364Z,31.87
2022-12-14T06:49:51.400Z,30.13
2022-12-14T06:52:26.716Z,30.30
2022-12-14T06:54:54.538Z,31.67
2022-12-14T06:57:25.241Z,31.33
2022-12-14T06:59:55.860Z,32.60
2022-12-14T07:02:26.895Z,28.17
2022-12-14T07:04:57.912Z,29.27
2022-12-14T07:07:28.713Z,29.37
2022-12-14T07:09:59.574Z,27.30
2022-12-14T07:15:12.470Z,27.43
2022-12-14T07:17:43.170Z,28.50
2022-12-14T07:20:14.306Z,25.80
2022-12-14T07:22:49.351Z,29.43
2022-12-14T07:25:18.064Z,30.13
2022-12-14T07:27:48.748Z,31.07
2022-12-14T07:30:19.499Z,31.80
2022-12-14T07:32:50.348Z,30.53
2022-12-14T07:35:21.507Z,27.30
2022-12-14T07:40:34.076Z,28.97
2022-12-14T07:43:04.716Z,29.90
2022-12-14T07:45:35.400Z,28.17
2022-12-14T07:48:07.780Z,27.67
2022-12-14T07:50:38.568Z,28.07
2022-12-14T07:53:09.274Z,28.10
2022-12-14T07:55:39.972Z,28.57
2022-12-14T07:58:10.654Z,29.23
2022-12-14T08:00:41.500Z,30.60
2022-12-14T08:03:12.582Z,28.60
2022-12-14T08:05:43.539Z,29.23
2022-12-14T08:08:14.314Z,33.77
2022-12-14T08:10:46.453Z,35.07
2022-12-14T08:13:17.169Z,27.73
2022-12-14T08:15:47.930Z,25.37
2022-12-14T08:18:18.725Z,25.20
2022-12-14T08:20:53.340Z,24.17
2022-12-14T08:23:24.335Z,27.80
2022-12-14T08:26:00.335Z,34.00
2022-12-14T08:28:32.756Z,36.73
2022-12-14T08:31:08.787Z,34.80
2022-12-14T08:33:40.952Z,32.50
2022-12-14T08:36:14.390Z,33.20
2022-12-14T08:38:45.803Z,31.93
2022-12-14T08:41:18.427Z,32.43
2022-12-14T08:43:52.466Z,29.80
2022-12-14T08:46:24.304Z,29.90
2022-12-14T08:48:56.968Z,32.20
2022-12-14T08:51:29.404Z,28.97
2022-12-14T08:54:00.379Z,28.60
2022-12-14T08:56:31.305Z,25.57
2022-12-14T08:59:03.153Z,25.77
2022-12-14T09:01:34.822Z,32.47
2022-12-14T09:04:08.001Z,40.10
2022-12-14T09:06:40.654Z,35.23
2022-12-14T09:09:16.482Z,36.77
2022-12-14T09:11:43.961Z,36.90
2022-12-14T09:16:53.560Z,36.43
2022-12-14T09:19:24.202Z,36.70
2022-12-14T09:21:55.175Z,36.60
2022-12-14T09:24:26.131Z,38.07
2022-12-14T09:26:57.848Z,38.93
2022-12-14T09:29:29.160Z,36.53
2022-12-14T09:31:59.893Z,38.50
2022-12-14T09:34:30.714Z,39.60
2022-12-14T09:37:04.171Z,36.37
2022-12-14T09:39:35.960Z,35.80
2022-12-14T09:42:12.611Z,39.17
2022-12-14T09:44:50.694Z,49.13
2022-12-14T09:47:24.530Z,48.43
2022-12-14T09:52:41.035Z,40.33
2022-12-14T09:55:19.017Z,38.07
2022-12-14T09:57:52.316Z,36.17
2022-12-14T10:00:23.727Z,38.40
2022-12-14T10:03:06.518Z,38.30
2022-12-14T10:05:43.250Z,37.03
2022-12-14T10:08:17.766Z,36.90
2022-12-14T10:10:52.559Z,43.60
2022-12-14T10:13:29.428Z,41.27
2022-12-14T10:18:59.367Z,39.53
2022-12-14T10:21:24.483Z,37.97
2022-12-14T10:24:00.511Z,35.67
2022-12-14T10:26:34.672Z,35.57
2022-12-14T10:29:08.635Z,36.30
2022-12-14T10:31:42.626Z,43.63
2022-12-14T10:34:19.664Z,41.67
2022-12-14T10:36:59.809Z,39.00
2022-12-14T10:39:36.677Z,40.33
2022-12-14T10:42:11.359Z,36.90
2022-12-14T10:44:50.112Z,37.47
2022-12-14T10:50:05.587Z,37.87
2022-12-14T10:52:41.839Z,36.47
2022-12-14T10:55:21.173Z,35.60
2022-12-14T10:57:51.955Z,33.67
2022-12-14T11:00:23.650Z,33.83
2022-12-14T11:02:57.627Z,34.60
2022-12-14T11:05:36.683Z,31.33
2022-12-14T11:08:07.832Z,28.43
2022-12-14T11:10:40.382Z,27.40
2022-12-14T11:13:17.994Z,28.50
2022-12-14T11:15:51.107Z,31.83
2022-12-14T11:18:31.352Z,33.07
2022-12-14T11:21:04.595Z,33.43
2022-12-14T11:23:38.843Z,32.63
2022-12-14T11:26:13.465Z,34.57
2022-12-14T11:31:30.672Z,33.73
2022-12-14T11:34:03.172Z,46.90
2022-12-14T11:36:37.212Z,71.37
2022-12-14T11:39:10.500Z,43.10
2022-12-14T11:41:43.512Z,58.10
2022-12-14T11:44:27.593Z,42.93
2022-12-14T11:47:05.037Z,39.47
2022-12-14T11:49:40.595Z,39.63
2022-12-14T11:52:17.327Z,39.20
2022-12-14T11:54:50.458Z,38.70
2022-12-14T12:00:17.240Z,38.70
2022-12-14T12:02:53.275Z,37.77
2022-12-14T12:05:26.296Z,35.60
2022-12-14T12:07:59.936Z,35.80
2022-12-14T12:10:36.812Z,36.70
2022-12-14T12:13:09.997Z,36.73
2022-12-14T12:15:49.891Z,35.63
2022-12-14T12:18:20.160Z,30.37
2022-12-14T12:43:59.701Z,81.27
2022-12-14T12:46:33.509Z,70.80
2022-12-14T12:51:49.261Z,52.60
2022-12-14T12:57:04.007Z,56.03
2022-12-14T12:59:41.038Z,51.60
2022-12-14T13:02:24.769Z,52.67
2022-12-14T13:05:06.956Z,52.77
2022-12-14T13:07:35.366Z,49.67
2022-12-14T13:10:12.159Z,42.43
2022-12-14T13:15:27.693Z,40.70
2022-12-14T13:18:02.210Z,41.17
2022-12-14T13:20:36.058Z,40.77
2022-12-14T13:23:43.139Z,83.10
2022-12-14T13:25:44.858Z,69.80
2022-12-14T13:28:34.593Z,68.37
2022-12-14T13:31:18.451Z,42.83
2022-12-14T13:34:03.977Z,42.97
2022-12-14T13:37:00.471Z,42.17
2022-12-14T13:39:52.439Z,43.47
2022-12-14T13:42:28.752Z,41.97
2022-12-14T13:45:02.091Z,41.53
2022-12-14T13:50:35.892Z,46.37
2022-12-14T13:53:01.590Z,39.23
2022-12-14T13:55:38.911Z,40.80
2022-12-14T13:58:16.855Z,40.40
2022-12-14T14:01:00.897Z,38.50
2022-12-14T14:07:20.091Z,38.50
2022-12-14T14:10:00.370Z,36.47
2022-12-14T14:12:44.003Z,39.10
2022-12-14T14:18:31.999Z,38.63
2022-12-14T14:21:42.750Z,36.57
2022-12-14T14:27:12.067Z,47.10
2022-12-14T14:29:49.432Z,47.70
2022-12-14T14:32:37.316Z,41.63
2022-12-14T14:35:11.811Z,51.53
2022-12-14T14:37:42.581Z,38.13
2022-12-14T14:43:13.023Z,44.70
2022-12-14T14:45:46.099Z,40.70
2022-12-14T14:48:32.417Z,36.57
2022-12-14T14:51:10.300Z,39.47
2022-12-14T14:53:42.213Z,38.87
2022-12-14T14:56:37.646Z,39.93
2022-12-14T14:59:26.034Z,34.53
2022-12-14T15:02:00.739Z,34.20
2022-12-14T15:04:35.261Z,34.10
2022-12-14T15:07:08.850Z,35.53
2022-12-14T15:12:26.003Z,38.23
2022-12-14T15:15:00.378Z,38.30
2022-12-14T15:17:31.313Z,36.30
2022-12-14T15:20:03.435Z,33.73
2022-12-14T15:22:37.191Z,33.17
2022-12-14T15:25:13.319Z,33.40
2022-12-14T15:27:44.180Z,33.07
2022-12-14T15:30:23.620Z,32.37
2022-12-14T15:32:58.929Z,33.13
2022-12-14T15:35:32.645Z,34.67
2022-12-14T15:38:06.456Z,35.73
2022-12-14T15:40:37.752Z,35.43
2022-12-14T15:43:20.027Z,34.60
2022-12-14T15:45:53.255Z,36.60
2022-12-14T15:48:29.783Z,35.57
2022-12-14T15:51:04.146Z,34.23
2022-12-14T15:53:37.786Z,40.43
2022-12-14T15:56:16.771Z,56.20
2022-12-14T15:58:54.158Z,57.47
2022-12-14T16:01:28.599Z,43.13
2022-12-14T16:04:04.190Z,48.10
2022-12-14T16:06:37.029Z,41.70
2022-12-14T16:09:11.424Z,35.90
2022-12-14T16:11:45.423Z,35.90
2022-12-14T16:14:21.400Z,46.77
2022-12-14T16:16:52.810Z,39.57
2022-12-14T16:19:28.811Z,36.23
2022-12-14T16:22:15.643Z,35.17
2022-12-14T16:25:05.022Z,36.60
2022-12-14T16:27:38.726Z,48.50
2022-12-14T16:33:27.633Z,42.43
2022-12-14T16:36:08.978Z,36.20
2022-12-14T16:38:44.631Z,36.47
2022-12-14T16:41:15.614Z,34.27
2022-12-14T16:43:50.474Z,36.40
2022-12-14T16:46:21.647Z,34.53
2022-12-14T16:49:20.246Z,32.57
2022-12-14T16:52:08.903Z,33.87
2022-12-14T16:54:35.369Z,33.97
2022-12-14T16:57:09.402Z,34.63
2022-12-14T16:59:44.233Z,39.90
2022-12-14T17:02:30.993Z,45.43
2022-12-14T17:05:04.888Z,54.67
2022-12-14T17:07:38.752Z,54.63
2022-12-14T17:10:17.059Z,48.33
2022-12-14T17:12:49.323Z,38.40
2022-12-14T17:15:23.208Z,37.40
2022-12-14T17:17:56.605Z,33.70
2022-12-14T17:20:29.865Z,35.43
2022-12-14T17:23:03.431Z,30.67
2022-12-14T17:25:35.748Z,43.17
2022-12-14T17:28:07.919Z,39.63
2022-12-14T17:30:39.999Z,38.17
2022-12-14T17:33:12.364Z,32.30
2022-12-14T17:35:43.034Z,33.00
2022-12-14T17:38:18.234Z,33.17
2022-12-14T17:40:50.762Z,29.93
2022-12-14T17:43:24.726Z,30.50
2022-12-14T17:45:58.366Z,31.87
2022-12-14T17:48:29.534Z,37.23
2022-12-14T17:51:01.578Z,35.37
2022-12-14T17:56:10.511Z,33.87
2022-12-14T17:58:41.165Z,36.17
2022-12-14T18:01:13.166Z,38.60
2022-12-14T18:03:44.236Z,38.57
2022-12-14T18:06:17.885Z,37.67
2022-12-14T18:08:49.813Z,42.13
2022-12-14T18:11:27.184Z,42.70
2022-12-14T18:13:59.008Z,39.77
2022-12-14T18:16:30.417Z,46.03
2022-12-14T18:19:01.178Z,40.80
2022-12-14T18:21:32.770Z,44.13
2022-12-14T18:24:06.775Z,44.17
2022-12-14T18:26:35.837Z,42.27
2022-12-14T18:29:06.503Z,43.43
2022-12-14T18:31:40.474Z,42.93
2022-12-14T18:36:58.566Z,41.57
2022-12-14T18:39:29.402Z,43.67
2022-12-14T18:42:00.115Z,45.10
2022-12-14T18:44:30.810Z,39.60
2022-12-14T18:47:20.374Z,38.03
2022-12-14T18:49:34.262Z,40.70
2022-12-14T18:52:05.796Z,42.43
2022-12-14T18:54:36.579Z,41.83
2022-12-14T18:57:07.559Z,40.80
2022-12-14T18:59:42.413Z,36.80
2022-12-14T19:02:14.840Z,34.57
2022-12-14T19:04:49.409Z,45.47
2022-12-14T19:07:20.052Z,58.90
2022-12-14T19:09:50.861Z,42.30
2022-12-14T19:12:21.566Z,46.07
2022-12-14T19:14:52.637Z,37.43
2022-12-14T19:17:23.441Z,36.07
2022-12-14T19:19:54.182Z,33.53
2022-12-14T19:22:26.707Z,33.83
2022-12-14T19:28:11.377Z,37.17
2022-12-14T19:30:09.813Z,46.97
2022-12-14T19:32:40.773Z,55.17
2022-12-14T19:35:12.050Z,43.90
2022-12-14T19:37:42.887Z,45.83
2022-12-14T19:40:16.322Z,41.63
2022-12-14T19:42:47.385Z,42.90
2022-12-14T19:45:18.676Z,47.20
2022-12-14T19:47:49.279Z,52.60
2022-12-14T19:50:20.199Z,45.53
2022-12-14T19:52:52.827Z,43.23
2022-12-14T19:55:24.236Z,45.60
2022-12-14T19:57:54.882Z,43.37
2022-12-14T20:00:29.787Z,40.90
2022-12-14T20:05:39.958Z,41.53
2022-12-14T20:08:10.738Z,43.03
2022-12-14T20:10:41.569Z,41.00
2022-12-14T20:13:12.287Z,42.10
2022-12-14T20:18:23.626Z,41.67
2022-12-14T20:20:56.087Z,43.33
2022-12-14T20:26:05.733Z,39.43
2022-12-14T20:28:36.926Z,39.00
2022-12-14T20:31:09.880Z,39.23
2022-12-14T20:33:41.445Z,39.10
2022-12-14T20:38:58.261Z,38.53
2022-12-14T20:41:31.848Z,41.83
2022-12-14T20:44:03.962Z,37.90
2022-12-14T20:46:37.367Z,43.93
2022-12-14T20:49:11.552Z,54.43
2022-12-14T20:51:44.641Z,47.50
2022-12-14T20:54:18.741Z,49.13
2022-12-14T20:56:50.673Z,53.80
2022-12-14T20:59:22.097Z,39.70
2022-12-14T21:01:56.755Z,42.27
2022-12-14T21:04:28.775Z,44.57
2022-12-14T21:06:59.756Z,45.13
2022-12-14T21:09:30.755Z,51.70
2022-12-14T21:12:19.464Z,54.80
2022-12-14T21:14:53.761Z,57.43
2022-12-14T21:17:27.172Z,56.77
2022-12-14T21:19:59.085Z,54.97
2022-12-14T21:25:09.376Z,51.17
2022-12-14T21:27:40.901Z,58.13
2022-12-14T21:32:50.256Z,53.67
2022-12-14T21:37:59.019Z,51.17
2022-12-14T21:40:48.561Z,53.50
2022-12-14T21:43:19.169Z,49.37
2022-12-14T21:45:51.459Z,51.57
2022-12-14T21:48:22.195Z,50.77
2022-12-14T21:50:52.915Z,47.77
2022-12-14T21:53:23.919Z,42.90
2022-12-14T21:55:56.585Z,43.47
2022-12-14T21:58:27.761Z,49.07
2022-12-14T22:00:58.485Z,48.57
2022-12-14T22:06:08.391Z,48.97
2022-12-14T22:11:24.371Z,60.90
2022-12-14T22:16:36.135Z,55.10
2022-12-14T22:19:08.698Z,54.37
2022-12-14T22:21:40.959Z,52.90
2022-12-14T22:24:12.783Z,58.70
2022-12-14T22:26:44.633Z,57.10
2022-12-14T22:29:17.488Z,51.63
2022-12-14T22:34:26.756Z,51.73
2022-12-14T22:36:57.496Z,59.10
2022-12-14T22:42:09.048Z,55.93
2022-12-14T22:44:40.448Z,55.23
2022-12-14T22:47:11.074Z,53.93
2022-12-14T22:52:24.549Z,45.50
2022-12-14T22:54:51.833Z,46.60
2022-12-14T22:57:23.562Z,43.57
2022-12-14T22:59:57.458Z,45.47
2022-12-14T23:02:28.283Z,44.83
2022-12-14T23:04:59.511Z,46.47
2022-12-14T23:07:30.082Z,46.30
2022-12-14T23:10:18.612Z,43.53
2022-12-14T23:13:06.920Z,49.30
2022-12-14T23:15:55.143Z,43.20
2022-12-14T23:19:01.888Z,46.63
2022-12-14T23:21:50.784Z,46.67
2022-12-14T23:24:58.126Z,43.67
2022-12-14T23:27:46.263Z,47.23
2022-12-14T23:30:52.983Z,52.57
2022-12-14T23:33:41.627Z,49.90
2022-12-14T23:36:30.356Z,51.60
2022-12-14T23:39:18.528Z,49.30
2022-12-14T23:42:07.816Z,53.23
2022-12-14T23:44:55.857Z,60.17
2022-12-14T23:48:02.621Z,50.13
2022-12-14T23:50:50.838Z,45.33
2022-12-14T23:53:38.934Z,57.83
2022-12-14T23:56:27.661Z,64.87
2022-12-14T23:59:18.693Z,53.47
